Time;durP1;ratioP1;P1;durP2;ratioP2;P2;SDS_P1;SDS_P2;PMS_P1;PMS_P2;Temp;Humidity;BMP_temperature;BMP_pressure;BME280_temperature;BME280_humidity;BME280_pressure;Samples;Min_cycle;Max_cycle;Signal;HPM_P1;HPM_P2
2022/10/13 00:01:11;;;;;;;20.65;10.80;;;9.80;99.90;;;;;;5133974;27;20062;-60
2022/10/13 00:03:39;;;;;;;21.27;11.95;;;9.80;99.90;;;;;;5115547;28;20509;-60
2022/10/13 00:06:08;;;;;;;18.15;10.88;;;9.80;99.90;;;;;;5116969;28;20172;-59
2022/10/13 00:08:36;;;;;;;19.83;11.35;;;9.80;99.90;;;;;;5116284;28;20491;-59
2022/10/13 00:11:10;;;;;;;18.35;11.25;;;9.80;99.90;;;;;;5115650;28;20055;-59
2022/10/13 00:13:37;;;;;;;20.77;11.60;;;9.80;99.90;;;;;;5116768;28;20051;-60
2022/10/13 00:16:04;;;;;;;21.35;11.55;;;9.80;99.90;;;;;;5116549;28;20066;-59
2022/10/13 00:18:32;;;;;;;18.42;11.20;;;9.80;99.90;;;;;;5115696;28;20444;-59
2022/10/13 00:20:59;;;;;;;23.63;11.75;;;9.90;99.90;;;;;;5115303;28;20109;-59
2022/10/13 00:23:26;;;;;;;19.65;10.40;;;9.90;99.90;;;;;;5116614;28;20047;-59
2022/10/13 00:25:53;;;;;;;18.02;11.35;;;9.90;99.90;;;;;;5115385;28;20100;-60
2022/10/13 00:28:21;;;;;;;20.02;12.05;;;9.90;99.90;;;;;;5116398;28;20112;-60
2022/10/13 00:30:47;;;;;;;25.40;11.05;;;9.80;99.90;;;;;;5116382;28;20142;-60
2022/10/13 00:33:15;;;;;;;17.17;11.65;;;9.90;99.90;;;;;;5133499;27;20478;-59
2022/10/13 00:35:44;;;;;;;21.90;11.65;;;9.90;99.90;;;;;;5136332;27;20055;-59
2022/10/13 00:38:11;;;;;;;21.50;11.07;;;9.90;99.90;;;;;;5137237;27;20048;-59
2022/10/13 00:40:45;;;;;;;22.17;11.32;;;9.80;99.90;;;;;;5118535;27;20050;-59
2022/10/13 00:43:17;;;;;;;19.38;10.80;;;9.90;99.90;;;;;;5136566;27;20162;-60
2022/10/13 00:45:44;;;;;;;27.25;11.88;;;9.90;99.90;;;;;;5136593;27;20074;-60
2022/10/13 00:48:12;;;;;;;17.63;11.23;;;9.90;99.90;;;;;;5135911;27;20058;-59
2022/10/13 00:50:41;;;;;;;22.45;11.75;;;9.90;99.90;;;;;;5117557;27;20051;-60
2022/10/13 00:53:11;;;;;;;15.95;10.32;;;9.90;99.90;;;;;;5136834;27;20406;-59
2022/10/13 00:55:40;;;;;;;16.42;10.80;;;9.90;99.90;;;;;;5118072;27;20055;-59
2022/10/13 00:58:09;;;;;;;21.60;11.98;;;9.90;99.90;;;;;;5136808;27;20437;-60
2022/10/13 01:00:36;;;;;;;22.60;11.82;;;9.90;99.90;;;;;;5136714;27;20100;-60
2022/10/13 01:03:03;;;;;;;21.65;11.80;;;9.90;99.90;;;;;;5136067;27;20096;-60
2022/10/13 01:05:31;;;;;;;20.60;11.73;;;9.90;99.90;;;;;;5114210;28;20571;-60
2022/10/13 01:07:59;;;;;;;23.75;12.48;;;10.00;99.90;;;;;;5116292;28;20054;-59
2022/10/13 01:10:39;;;;;;;20.33;11.07;;;9.90;99.90;;;;;;5099064;27;20517;-59
2022/10/13 01:13:14;;;;;;;26.77;12.15;;;9.90;99.90;;;;;;5135858;27;20047;-59
2022/10/13 01:15:45;;;;;;;19.70;11.38;;;9.90;99.90;;;;;;5135879;27;20039;-59
2022/10/13 01:18:20;;;;;;;22.30;10.93;;;9.90;99.90;;;;;;5136132;27;20047;-59
2022/10/13 01:21:04;;;;;;;24.35;11.35;;;9.90;99.90;;;;;;5118075;27;20051;-59
2022/10/13 01:23:55;;;;;;;20.77;11.45;;;9.90;99.90;;;;;;5135617;27;20047;-60
2022/10/13 01:26:46;;;;;;;22.85;11.63;;;9.90;99.90;;;;;;5097247;28;20153;-60
2022/10/13 01:29:47;;;;;;;21.98;12.23;;;10.00;99.90;;;;;;5116043;28;20051;-59
2022/10/13 01:32:23;;;;;;;21.33;11.75;;;9.90;99.90;;;;;;5115134;28;20051;-59
2022/10/13 01:34:56;;;;;;;21.90;12.15;;;10.00;99.90;;;;;;5115487;28;20051;-59
2022/10/13 01:37:29;;;;;;;21.73;12.27;;;10.00;99.90;;;;;;5115711;28;20453;-59
2022/10/13 01:40:03;;;;;;;18.40;11.73;;;10.00;99.90;;;;;;5128773;27;20047;-60
2022/10/13 01:42:35;;;;;;;23.67;12.07;;;10.00;99.90;;;;;;5135531;27;20398;-59
2022/10/13 01:45:04;;;;;;;23.95;12.80;;;10.00;99.90;;;;;;5135150;27;20494;-60
2022/10/13 01:47:35;;;;;;;22.27;12.25;;;10.00;99.90;;;;;;5135519;27;20435;-60
2022/10/13 01:50:03;;;;;;;22.42;12.25;;;10.00;99.90;;;;;;5117589;27;20543;-59
2022/10/13 01:52:35;;;;;;;17.60;11.70;;;10.00;99.90;;;;;;5116827;27;20096;-60
2022/10/13 01:55:06;;;;;;;21.73;12.18;;;10.10;99.90;;;;;;5135392;27;20047;-60
2022/10/13 01:57:38;;;;;;;19.83;12.23;;;10.10;99.90;;;;;;5117346;27;20096;-60
2022/10/13 02:00:09;;;;;;;24.10;12.60;;;10.10;99.90;;;;;;5113028;28;20059;-60
2022/10/13 02:02:43;;;;;;;24.45;12.13;;;10.10;99.90;;;;;;5126335;27;20447;-60
2022/10/13 02:05:19;;;;;;;19.05;12.13;;;10.10;99.90;;;;;;5135449;27;20084;-59
2022/10/13 02:07:49;;;;;;;22.80;11.60;;;10.00;99.90;;;;;;5134655;27;20486;-60
2022/10/13 02:10:22;;;;;;;20.17;12.15;;;10.10;99.90;;;;;;5135485;27;20047;-59
2022/10/13 02:12:52;;;;;;;22.40;12.13;;;10.00;99.90;;;;;;5116661;27;20059;-60
2022/10/13 02:15:30;;;;;;;31.75;13.27;;;10.00;99.90;;;;;;5116660;27;20128;-59
2022/10/13 02:17:57;;;;;;;25.23;11.73;;;10.00;99.90;;;;;;5135428;27;20051;-59
2022/10/13 02:20:24;;;;;;;17.70;11.68;;;9.90;99.90;;;;;;5116551;27;20059;-60
2022/10/13 02:22:59;;;;;;;20.33;11.80;;;9.90;99.90;;;;;;5112848;28;20044;-60
2022/10/13 02:25:27;;;;;;;24.38;12.25;;;9.90;99.90;;;;;;5113953;28;20043;-60
2022/10/13 02:27:54;;;;;;;21.70;12.50;;;9.90;99.90;;;;;;5112673;28;20100;-60
2022/10/13 02:30:25;;;;;;;20.70;12.35;;;9.90;99.90;;;;;;5112672;28;20047;-60
2022/10/13 02:32:53;;;;;;;23.77;13.30;;;9.90;99.90;;;;;;5114408;28;20048;-60
2022/10/13 02:35:20;;;;;;;19.00;12.10;;;9.80;99.90;;;;;;5113857;28;20883;-60
2022/10/13 02:37:47;;;;;;;23.70;11.98;;;9.80;99.90;;;;;;5096004;28;20051;-60
2022/10/13 02:40:14;;;;;;;22.63;12.05;;;9.80;99.90;;;;;;5096062;28;20603;-60
2022/10/13 02:42:41;;;;;;;23.95;12.30;;;9.80;99.90;;;;;;5113360;28;20399;-60
2022/10/13 02:45:09;;;;;;;18.88;12.48;;;9.80;99.90;;;;;;5103593;27;20051;-59
2022/10/13 02:47:37;;;;;;;22.25;13.52;;;9.80;99.90;;;;;;5134738;27;20509;-59
2022/10/13 02:50:05;;;;;;;18.30;12.45;;;9.80;99.90;;;;;;5134242;27;20096;-59
2022/10/13 02:52:32;;;;;;;24.95;12.48;;;9.80;99.90;;;;;;5134343;27;20092;-59
2022/10/13 02:54:59;;;;;;;21.88;11.93;;;9.80;99.90;;;;;;5133873;27;20107;-60
2022/10/13 02:57:26;;;;;;;23.52;12.93;;;9.80;99.90;;;;;;5115716;27;20580;-59
2022/10/13 02:59:53;;;;;;;23.55;13.05;;;9.70;99.90;;;;;;5134692;27;20050;-59
2022/10/13 03:02:20;;;;;;;18.17;12.73;;;9.80;99.90;;;;;;5133843;27;20047;-59
2022/10/13 03:04:48;;;;;;;23.77;12.85;;;9.80;99.90;;;;;;5134035;27;20096;-59
2022/10/13 03:07:15;;;;;;;22.08;13.68;;;9.80;99.90;;;;;;5134281;27;20058;-59
2022/10/13 03:09:42;;;;;;;20.63;12.75;;;9.70;99.90;;;;;;5133240;27;20046;-60
2022/10/13 03:12:09;;;;;;;19.80;12.55;;;9.70;99.90;;;;;;5134080;27;20103;-60
2022/10/13 03:14:36;;;;;;;20.80;12.85;;;9.70;99.90;;;;;;5115968;27;20054;-60
2022/10/13 03:17:03;;;;;;;24.17;12.35;;;9.70;99.90;;;;;;5133384;27;20051;-60
2022/10/13 03:19:30;;;;;;;19.55;12.65;;;9.80;99.90;;;;;;5115355;28;20046;-60
2022/10/13 03:21:59;;;;;;;19.60;12.60;;;9.80;99.90;;;;;;5115764;27;20051;-60
2022/10/13 03:24:25;;;;;;;21.65;13.15;;;9.80;99.90;;;;;;5111194;28;20043;-60
2022/10/13 03:26:52;;;;;;;20.30;12.95;;;9.80;99.90;;;;;;5113437;28;20403;-60
2022/10/13 03:29:21;;;;;;;23.50;13.35;;;9.80;99.90;;;;;;5113606;28;20407;-60
2022/10/13 03:31:48;;;;;;;19.73;12.05;;;9.90;99.90;;;;;;5113089;28;20052;-59
2022/10/13 03:34:18;;;;;;;27.27;14.57;;;9.90;99.90;;;;;;5113100;28;20195;-61
2022/10/13 03:36:44;;;;;;;22.33;13.43;;;9.90;99.90;;;;;;5113202;28;20052;-60
2022/10/13 03:39:13;;;;;;;23.70;13.30;;;9.90;99.90;;;;;;5112325;28;20058;-60
2022/10/13 03:41:40;;;;;;;23.02;12.98;;;9.90;99.90;;;;;;5133857;28;20491;-60
2022/10/13 03:44:07;;;;;;;28.25;13.82;;;10.00;99.90;;;;;;5115451;28;20115;-60
2022/10/13 03:46:34;;;;;;;27.42;13.35;;;10.00;99.90;;;;;;5122835;28;20054;-60
2022/10/13 03:49:01;;;;;;;25.42;14.38;;;10.00;99.90;;;;;;5110281;28;20052;-61
2022/10/13 03:51:28;;;;;;;27.60;14.73;;;10.10;99.90;;;;;;5094581;28;20047;-60
2022/10/13 03:53:55;;;;;;;22.38;13.02;;;10.00;99.90;;;;;;5093106;28;20545;-61
2022/10/13 03:56:25;;;;;;;26.67;12.98;;;10.10;99.90;;;;;;5092970;28;20387;-60
2022/10/13 03:58:53;;;;;;;22.98;13.48;;;10.10;99.90;;;;;;5093496;28;20043;-60
2022/10/13 04:01:21;;;;;;;18.58;14.02;;;10.10;99.90;;;;;;5110927;28;20493;-60
2022/10/13 04:03:48;;;;;;;24.55;14.40;;;10.10;99.90;;;;;;5111157;28;20085;-60
2022/10/13 04:06:15;;;;;;;21.30;14.13;;;10.10;99.90;;;;;;5093850;28;20044;-61
2022/10/13 04:08:41;;;;;;;21.80;14.13;;;10.10;99.90;;;;;;5103865;28;20487;-60
2022/10/13 04:11:10;;;;;;;26.92;14.93;;;10.10;99.90;;;;;;5093032;28;20047;-61
2022/10/13 04:13:38;;;;;;;24.77;14.35;;;10.10;99.90;;;;;;5092471;28;20444;-59
2022/10/13 04:16:07;;;;;;;22.90;14.18;;;10.10;99.90;;;;;;5092459;28;20536;-60
2022/10/13 04:18:35;;;;;;;22.77;14.07;;;10.00;99.90;;;;;;5092936;28;20420;-59
2022/10/13 04:21:02;;;;;;;25.92;15.18;;;10.00;99.90;;;;;;5110289;28;20531;-59
2022/10/13 04:23:28;;;;;;;28.02;15.75;;;10.00;99.90;;;;;;5111361;28;20036;-60
2022/10/13 04:25:56;;;;;;;23.52;15.63;;;10.00;99.90;;;;;;5092722;28;20070;-60
2022/10/13 04:28:23;;;;;;;26.70;15.38;;;10.00;99.90;;;;;;5110307;28;20501;-59
2022/10/13 04:30:51;;;;;;;27.02;15.88;;;10.50;99.90;;;;;;5109728;28;20496;-61
2022/10/13 04:33:18;;;;;;;22.08;13.18;;;10.40;99.90;;;;;;5093648;28;20453;-61
2022/10/13 04:35:45;;;;;;;24.63;14.93;;;10.60;99.90;;;;;;5109565;28;20047;-60
2022/10/13 04:38:12;;;;;;;25.85;15.32;;;11.00;99.90;;;;;;5097270;28;20058;-60
2022/10/13 04:40:39;;;;;;;28.27;15.15;;;10.80;99.90;;;;;;5096755;28;20055;-59
2022/10/13 04:43:06;;;;;;;24.52;14.18;;;10.60;99.90;;;;;;5115570;28;20504;-59
2022/10/13 04:45:33;;;;;;;22.55;14.93;;;10.50;99.90;;;;;;5111531;28;20469;-59
2022/10/13 04:48:02;;;;;;;23.35;15.77;;;10.40;99.90;;;;;;5113137;28;20051;-60
2022/10/13 04:50:29;;;;;;;25.42;15.27;;;10.30;99.90;;;;;;5114488;27;20044;-59
2022/10/13 04:52:55;;;;;;;25.05;15.02;;;10.20;99.90;;;;;;5116461;27;20043;-59
2022/10/13 04:55:22;;;;;;;25.27;15.20;;;10.20;99.90;;;;;;5121586;27;20047;-60
2022/10/13 04:57:49;;;;;;;23.73;15.65;;;10.20;99.90;;;;;;5120401;27;20052;-60
2022/10/13 05:00:17;;;;;;;25.48;15.25;;;10.20;99.90;;;;;;5109701;27;20100;-60
2022/10/13 05:02:43;;;;;;;20.67;16.02;;;10.20;99.90;;;;;;5122397;27;20483;-60
2022/10/13 05:05:12;;;;;;;26.27;15.75;;;10.10;99.90;;;;;;5102529;28;20108;-59
2022/10/13 05:07:38;;;;;;;27.08;15.95;;;10.10;99.90;;;;;;5119372;27;20051;-60
2022/10/13 05:10:06;;;;;;;26.50;16.83;;;10.10;99.90;;;;;;5115320;27;20051;-58
2022/10/13 05:12:33;;;;;;;25.23;16.05;;;10.10;99.90;;;;;;5106365;28;20562;-60
2022/10/13 05:15:00;;;;;;;25.33;16.08;;;10.10;99.90;;;;;;5134929;27;20168;-60
2022/10/13 05:17:29;;;;;;;23.70;15.98;;;10.00;99.90;;;;;;5121188;27;20105;-61
2022/10/13 05:19:56;;;;;;;27.23;17.08;;;10.00;99.90;;;;;;5102790;27;20510;-60
2022/10/13 05:22:24;;;;;;;27.00;17.38;;;10.00;99.90;;;;;;5104658;27;20050;-60
2022/10/13 05:24:51;;;;;;;27.23;16.67;;;10.00;99.90;;;;;;5119871;27;20565;-60
2022/10/13 05:27:19;;;;;;;25.58;17.05;;;10.00;99.90;;;;;;5113847;27;20039;-60
2022/10/13 05:29:46;;;;;;;29.80;17.75;;;10.00;99.90;;;;;;5120923;27;20438;-61
2022/10/13 05:32:12;;;;;;;26.27;17.08;;;10.10;99.90;;;;;;5114252;28;20048;-60
2022/10/13 05:34:39;;;;;;;26.10;18.17;;;10.00;99.90;;;;;;5114173;28;20039;-60
2022/10/13 05:37:06;;;;;;;28.42;17.42;;;10.00;99.90;;;;;;5102358;27;20060;-61
2022/10/13 05:39:34;;;;;;;29.67;17.83;;;10.00;99.90;;;;;;5100576;27;20047;-60
2022/10/13 05:42:01;;;;;;;28.67;17.88;;;10.00;99.90;;;;;;5106150;28;20406;-60
2022/10/13 05:44:28;;;;;;;29.05;18.40;;;10.00;99.90;;;;;;5114401;28;20048;-59
2022/10/13 05:46:55;;;;;;;35.53;18.75;;;10.00;99.90;;;;;;5095458;28;20048;-60
2022/10/13 05:49:22;;;;;;;28.83;18.48;;;10.00;99.90;;;;;;5129688;27;20445;-60
2022/10/13 05:51:53;;;;;;;34.33;19.20;;;10.00;99.90;;;;;;5114205;27;20097;-61
2022/10/13 05:54:23;;;;;;;28.23;18.17;;;10.00;99.90;;;;;;5118596;27;20043;-60
2022/10/13 05:56:59;;;;;;;30.77;18.63;;;10.10;99.90;;;;;;5114663;27;20499;-60
2022/10/13 05:59:28;;;;;;;29.73;18.30;;;10.00;99.90;;;;;;5115467;27;20054;-60
2022/10/13 06:01:56;;;;;;;32.13;19.23;;;10.10;99.90;;;;;;5116678;27;20056;-60
2022/10/13 06:04:26;;;;;;;26.80;19.13;;;10.10;99.90;;;;;;5113761;27;20445;-60
2022/10/13 06:07:27;;;;;;;;;;;10.00;99.90;;;;;;5108196;28;20066;-60
2022/10/13 06:09:54;;;;;;;29.48;17.77;;;10.10;99.90;;;;;;5097349;27;20363;-59
2022/10/13 06:12:22;;;;;;;32.28;20.15;;;10.10;99.90;;;;;;5099031;27;20401;-60
2022/10/13 06:14:49;;;;;;;33.78;19.70;;;10.10;99.90;;;;;;5129903;27;20096;-60
2022/10/13 06:17:16;;;;;;;32.88;19.92;;;10.10;99.90;;;;;;5104706;27;20059;-60
2022/10/13 06:19:44;;;;;;;31.58;20.25;;;10.00;99.90;;;;;;5134229;27;20096;-60
2022/10/13 06:22:11;;;;;;;31.58;20.27;;;10.10;99.90;;;;;;5133520;27;20049;-60
2022/10/13 06:24:38;;;;;;;34.38;20.52;;;10.10;99.90;;;;;;5133532;27;20448;-59
2022/10/13 06:27:04;;;;;;;30.33;19.13;;;10.10;99.90;;;;;;5122646;27;20051;-59
2022/10/13 06:29:33;;;;;;;33.58;19.48;;;10.10;99.90;;;;;;5122048;27;20052;-59
2022/10/13 06:32:00;;;;;;;34.83;19.27;;;10.20;99.90;;;;;;5128420;27;20126;-60
2022/10/13 06:34:26;;;;;;;36.08;19.92;;;10.20;99.90;;;;;;5134200;27;20047;-60
2022/10/13 06:36:53;;;;;;;36.40;20.25;;;10.30;99.90;;;;;;5134310;27;20551;-60
2022/10/13 06:39:20;;;;;;;30.02;20.35;;;10.30;99.90;;;;;;5134586;27;20073;-59
2022/10/13 06:41:47;;;;;;;33.15;19.55;;;10.30;99.90;;;;;;5134118;27;20082;-59
2022/10/13 06:44:14;;;;;;;31.88;19.67;;;10.30;99.90;;;;;;5132061;27;20491;-59
2022/10/13 06:46:42;;;;;;;30.45;19.45;;;10.40;99.90;;;;;;5103829;28;20056;-59
2022/10/13 06:49:10;;;;;;;30.30;19.13;;;10.40;99.90;;;;;;5113238;28;20043;-60
2022/10/13 06:51:37;;;;;;;32.33;19.77;;;10.50;99.90;;;;;;5116635;27;20142;-60
2022/10/13 06:54:03;;;;;;;30.17;19.67;;;10.50;99.90;;;;;;5095970;28;20044;-59
2022/10/13 06:56:30;;;;;;;34.10;19.67;;;10.50;99.90;;;;;;5112931;28;20047;-59
2022/10/13 06:58:57;;;;;;;28.80;18.17;;;10.60;99.90;;;;;;5114118;27;20100;-59
2022/10/13 07:01:24;;;;;;;28.77;17.88;;;10.60;99.90;;;;;;5115500;27;20055;-59
2022/10/13 07:03:53;;;;;;;30.42;19.25;;;10.70;99.90;;;;;;5112115;28;20096;-59
2022/10/13 07:06:20;;;;;;;31.70;18.85;;;10.70;99.90;;;;;;5112260;28;20054;-60
2022/10/13 07:08:47;;;;;;;29.70;17.20;;;10.80;99.90;;;;;;5111541;28;20056;-60
2022/10/13 07:11:15;;;;;;;30.27;19.42;;;10.80;99.90;;;;;;5094996;28;20399;-61
2022/10/13 07:13:42;;;;;;;31.20;18.73;;;10.90;99.90;;;;;;5113794;28;20051;-59
2022/10/13 07:16:10;;;;;;;32.72;18.02;;;11.00;99.90;;;;;;5094583;28;20048;-59
2022/10/13 07:18:37;;;;;;;30.75;19.23;;;11.10;99.90;;;;;;5095620;28;20117;-59
2022/10/13 07:21:06;;;;;;;28.80;18.00;;;11.20;99.90;;;;;;5095379;28;20051;-60
2022/10/13 07:23:33;;;;;;;31.77;18.55;;;11.20;99.90;;;;;;5113144;28;20124;-60
2022/10/13 07:26:00;;;;;;;26.70;17.70;;;11.30;99.90;;;;;;5112873;28;20555;-60
2022/10/13 07:28:27;;;;;;;27.45;17.15;;;11.40;99.90;;;;;;5095502;28;20055;-60
2022/10/13 07:30:54;;;;;;;30.42;18.40;;;11.40;99.90;;;;;;5113009;28;20052;-60
2022/10/13 07:33:21;;;;;;;27.25;17.98;;;11.50;99.90;;;;;;5113461;28;20105;-60
2022/10/13 07:35:48;;;;;;;27.70;17.73;;;11.60;99.90;;;;;;5113258;28;20047;-60
2022/10/13 07:38:16;;;;;;;31.98;18.25;;;11.70;99.90;;;;;;5112630;28;20468;-60
2022/10/13 07:40:43;;;;;;;30.25;17.58;;;11.70;99.90;;;;;;5094926;28;20062;-60
2022/10/13 07:43:10;;;;;;;29.95;17.58;;;11.70;99.90;;;;;;5113633;28;20051;-60
2022/10/13 07:45:36;;;;;;;25.25;16.58;;;11.70;99.90;;;;;;5112450;28;20055;-60
2022/10/13 07:48:04;;;;;;;26.20;17.45;;;11.70;99.90;;;;;;5113486;28;20050;-60
2022/10/13 07:50:31;;;;;;;27.55;18.08;;;11.80;99.90;;;;;;5112834;28;20051;-61
2022/10/13 07:52:57;;;;;;;31.65;18.23;;;11.80;99.90;;;;;;5094921;28;20089;-60
2022/10/13 07:55:26;;;;;;;28.65;18.13;;;11.80;99.90;;;;;;5113061;28;20048;-60
2022/10/13 07:57:53;;;;;;;27.02;18.52;;;11.80;99.90;;;;;;5112790;28;20047;-60
2022/10/13 08:00:20;;;;;;;27.58;17.88;;;11.90;99.90;;;;;;5113059;28;20047;-60
2022/10/13 08:02:49;;;;;;;28.38;16.88;;;12.10;99.90;;;;;;5113444;28;20108;-60
2022/10/13 08:05:16;;;;;;;27.70;17.52;;;12.10;99.90;;;;;;5112426;28;20053;-60
2022/10/13 08:07:44;;;;;;;28.13;16.38;;;12.30;99.90;;;;;;5120223;28;20046;-60
2022/10/13 08:10:11;;;;;;;23.63;15.20;;;12.30;99.90;;;;;;5115414;28;20054;-60
2022/10/13 08:12:39;;;;;;;23.25;16.02;;;12.40;99.90;;;;;;5112914;28;20104;-59
2022/10/13 08:15:08;;;;;;;23.98;16.08;;;12.50;99.90;;;;;;5107735;28;20563;-59
2022/10/13 08:17:35;;;;;;;25.58;16.23;;;12.60;99.90;;;;;;5127109;28;20043;-59
2022/10/13 08:20:03;;;;;;;28.08;15.45;;;12.50;99.90;;;;;;5123751;28;20054;-60
2022/10/13 08:22:30;;;;;;;25.33;16.08;;;12.60;99.90;;;;;;5124992;27;20098;-60
2022/10/13 08:24:57;;;;;;;22.63;15.75;;;12.50;99.90;;;;;;5113466;28;20100;-59
2022/10/13 08:27:25;;;;;;;23.58;15.82;;;12.60;99.90;;;;;;5124835;27;20409;-60
2022/10/13 08:29:53;;;;;;;25.52;16.70;;;12.50;99.90;;;;;;5115244;28;20043;-60
2022/10/13 08:32:20;;;;;;;25.17;15.45;;;12.50;99.90;;;;;;5104370;28;20135;-61
2022/10/13 08:34:47;;;;;;;26.40;15.50;;;12.50;99.90;;;;;;5115594;27;20036;-61
2022/10/13 08:37:16;;;;;;;23.30;16.02;;;12.50;99.90;;;;;;5123094;27;20103;-60
2022/10/13 08:39:43;;;;;;;26.33;17.38;;;12.50;99.90;;;;;;5136493;27;20055;-60
2022/10/13 08:42:17;;;;;;;24.20;16.33;;;12.50;99.90;;;;;;5133744;27;20070;-60
2022/10/13 08:44:46;;;;;;;24.17;17.30;;;12.50;99.90;;;;;;5098307;28;20507;-60
2022/10/13 08:47:22;;;;;;;32.17;17.27;;;12.60;99.90;;;;;;5120683;27;20138;-60
2022/10/13 08:49:49;;;;;;;27.65;17.92;;;12.60;99.90;;;;;;5136448;27;20051;-60
2022/10/13 08:52:21;;;;;;;25.98;18.02;;;12.60;99.90;;;;;;5117829;27;20055;-60
2022/10/13 08:54:48;;;;;;;28.02;17.60;;;12.60;99.90;;;;;;5135674;27;20043;-60
2022/10/13 08:57:15;;;;;;;26.60;17.55;;;12.70;99.90;;;;;;5108600;28;20100;-60
2022/10/13 08:59:42;;;;;;;30.85;20.25;;;12.70;99.90;;;;;;5099077;28;20052;-60
2022/10/13 09:02:13;;;;;;;29.27;18.35;;;12.70;99.90;;;;;;5115500;28;20399;-60
2022/10/13 09:04:45;;;;;;;32.47;19.23;;;12.80;99.90;;;;;;5097305;28;20101;-60
2022/10/13 09:07:15;;;;;;;27.98;18.52;;;12.70;99.90;;;;;;5097699;28;20059;-61
2022/10/13 09:09:42;;;;;;;27.30;18.45;;;12.80;99.90;;;;;;5115169;28;20487;-60
2022/10/13 09:12:12;;;;;;;29.60;19.05;;;12.80;99.90;;;;;;5098662;27;20056;-60
2022/10/13 09:14:40;;;;;;;29.92;19.88;;;12.80;99.90;;;;;;5135980;27;20051;-60
2022/10/13 09:17:17;;;;;;;28.83;18.70;;;12.80;99.90;;;;;;5116952;27;20063;-60
2022/10/13 09:19:56;;;;;;;26.95;17.92;;;12.80;99.90;;;;;;5136261;27;20506;-60
2022/10/13 09:22:26;;;;;;;26.83;19.42;;;12.90;99.90;;;;;;5135497;27;20050;-60
2022/10/13 09:25:19;;;;;;;28.70;19.30;;;12.80;99.90;;;;;;5135549;27;20099;-59
2022/10/13 09:27:48;;;;;;;26.80;18.58;;;12.90;99.90;;;;;;5135957;27;20058;-60
2022/10/13 09:30:26;;;;;;;25.58;18.58;;;12.90;99.90;;;;;;5135470;27;20055;-60
2022/10/13 09:33:06;;;;;;;26.35;18.05;;;12.90;99.90;;;;;;5114914;28;20534;-60
2022/10/13 09:35:34;;;;;;;29.73;20.35;;;13.00;99.90;;;;;;5115492;28;20086;-59
2022/10/13 09:38:04;;;;;;;32.03;19.40;;;13.00;99.90;;;;;;5114380;28;20051;-60
2022/10/13 09:40:31;;;;;;;36.45;20.98;;;13.10;99.90;;;;;;5130022;27;20514;-61
2022/10/13 09:43:00;;;;;;;29.02;19.85;;;13.00;99.90;;;;;;5115443;27;20058;-61
2022/10/13 09:45:29;;;;;;;29.67;20.02;;;13.00;99.90;;;;;;5113577;28;20048;-60
2022/10/13 09:47:58;;;;;;;30.77;19.88;;;13.10;99.90;;;;;;5134028;27;20085;-60
2022/10/13 09:50:28;;;;;;;33.90;21.33;;;13.10;99.90;;;;;;5135017;27;20047;-60
2022/10/13 09:53:15;;;;;;;29.03;21.47;;;13.10;99.90;;;;;;5116996;27;20058;-59
2022/10/13 09:55:45;;;;;;;30.58;20.98;;;13.20;99.90;;;;;;5117110;27;20293;-60
2022/10/13 09:58:17;;;;;;;32.42;20.85;;;13.20;99.90;;;;;;5116313;27;20051;-60
2022/10/13 10:00:45;;;;;;;29.38;20.20;;;13.30;99.90;;;;;;5135149;27;20407;-60
2022/10/13 10:03:19;;;;;;;31.70;20.70;;;13.30;99.90;;;;;;5135461;27;20051;-60
2022/10/13 10:05:52;;;;;;;31.15;21.42;;;13.40;99.90;;;;;;5133756;27;20099;-61
2022/10/13 10:08:27;;;;;;;27.67;18.35;;;13.50;99.90;;;;;;5134905;27;20043;-60
2022/10/13 10:10:55;;;;;;;29.70;19.67;;;13.60;99.90;;;;;;5113354;28;20138;-61
2022/10/13 10:13:24;;;;;;;26.58;17.23;;;13.70;99.90;;;;;;5126274;27;20104;-61
2022/10/13 10:15:55;;;;;;;26.40;18.48;;;13.70;99.90;;;;;;5131409;27;20388;-61
2022/10/13 10:18:31;;;;;;;24.58;17.05;;;13.80;99.90;;;;;;5113764;28;20077;-61
2022/10/13 10:21:08;;;;;;;26.48;16.85;;;13.80;99.90;;;;;;5113372;28;20388;-60
2022/10/13 10:23:46;;;;;;;22.65;15.77;;;13.80;99.90;;;;;;5115126;27;20052;-61
2022/10/13 10:26:18;;;;;;;24.52;17.17;;;13.90;99.90;;;;;;5113731;28;20465;-59
2022/10/13 10:29:03;;;;;;;21.08;15.30;;;13.90;99.90;;;;;;5113890;28;20384;-60
2022/10/13 10:31:42;;;;;;;20.65;15.45;;;13.90;99.90;;;;;;5124081;27;20047;-61
2022/10/13 10:34:30;;;;;;;24.60;16.00;;;13.90;99.90;;;;;;5118397;27;20442;-60
2022/10/13 10:37:14;;;;;;;21.75;15.82;;;13.80;99.90;;;;;;5112548;28;20112;-60
2022/10/13 10:39:48;;;;;;;25.45;16.48;;;13.80;99.90;;;;;;5120893;27;20086;-61
2022/10/13 10:42:32;;;;;;;25.67;16.52;;;13.80;99.90;;;;;;5113236;28;20069;-61
2022/10/13 10:45:01;;;;;;;22.83;16.75;;;13.80;99.90;;;;;;5130581;27;20118;-60
2022/10/13 10:47:36;;;;;;;24.55;16.15;;;13.80;99.90;;;;;;5110469;28;20052;-61
2022/10/13 10:50:06;;;;;;;24.80;15.93;;;13.80;99.90;;;;;;5112872;28;20091;-60
2022/10/13 10:52:41;;;;;;;23.20;15.75;;;13.80;99.90;;;;;;5099315;28;20047;-60
2022/10/13 10:55:17;;;;;;;27.63;17.63;;;13.80;99.90;;;;;;5094998;27;20062;-60
2022/10/13 10:57:58;;;;;;;22.58;15.75;;;13.70;99.90;;;;;;5114605;27;20044;-60
2022/10/13 11:00:25;;;;;;;26.27;16.50;;;13.80;99.90;;;;;;5113062;27;20048;-59
2022/10/13 11:03:01;;;;;;;23.48;15.65;;;13.80;99.90;;;;;;5132464;27;20058;-61
2022/10/13 11:05:46;;;;;;;21.58;15.20;;;13.80;99.90;;;;;;5114477;27;20055;-61
2022/10/13 11:08:27;;;;;;;20.77;14.75;;;13.80;99.90;;;;;;5128932;27;20449;-60
2022/10/13 11:11:28;;;;;;;22.63;15.10;;;13.90;99.90;;;;;;5113547;28;20061;-60
2022/10/13 11:13:58;;;;;;;23.63;15.98;;;13.90;99.90;;;;;;5132830;27;20083;-61
2022/10/13 11:16:32;;;;;;;22.55;15.85;;;14.00;99.90;;;;;;5115200;27;20136;-61
2022/10/13 11:19:05;;;;;;;24.02;16.58;;;14.10;99.90;;;;;;5112263;28;20055;-60
2022/10/13 11:22:23;;;;;;;23.55;16.58;;;14.10;99.90;;;;;;5095623;28;20463;-60
2022/10/13 11:24:59;;;;;;;19.00;14.77;;;14.30;99.90;;;;;;5113196;28;20047;-60
2022/10/13 11:27:41;;;;;;;19.90;16.30;;;14.50;99.90;;;;;;5113133;28;20104;-60
2022/10/13 11:30:46;;;;;;;21.88;15.35;;;14.60;99.90;;;;;;5094302;28;20055;-61
2022/10/13 11:33:51;;;;;;;20.73;15.25;;;14.70;99.90;;;;;;5095185;28;20143;-59
2022/10/13 11:36:51;;;;;;;19.05;13.85;;;14.80;99.90;;;;;;5105983;28;20399;-60
2022/10/13 11:40:14;;;;;;;20.63;14.40;;;14.70;99.90;;;;;;5113094;28;20063;-60
2022/10/13 11:43:18;;;;;;;18.48;13.35;;;14.70;99.90;;;;;;5094906;28;20289;-60
2022/10/13 11:46:23;;;;;;;18.98;13.35;;;14.70;99.90;;;;;;5112838;28;20139;-59
2022/10/13 11:49:33;;;;;;;19.52;13.57;;;14.70;99.90;;;;;;5039485;28;20073;-60
2022/10/13 11:52:16;;;;;;;;;;;14.80;99.90;;;;;;5038927;28;20501;-60
2022/10/13 11:54:50;;;;;;;19.05;14.10;;;14.70;99.90;;;;;;5100567;28;19976;-60
2022/10/13 11:57:19;;;;;;;18.98;13.93;;;14.70;99.90;;;;;;5099567;28;20048;-60
2022/10/13 11:59:47;;;;;;;17.63;13.18;;;14.70;99.90;;;;;;5120916;27;20096;-60
2022/10/13 12:02:17;;;;;;;17.23;13.32;;;14.70;99.90;;;;;;5102207;28;20052;-60
2022/10/13 12:04:58;;;;;;;16.20;13.35;;;14.70;99.90;;;;;;5101846;28;20047;-60
2022/10/13 12:07:29;;;;;;;17.23;12.75;;;14.70;99.90;;;;;;5098510;28;20112;-60
2022/10/13 12:09:57;;;;;;;21.40;13.70;;;14.80;99.90;;;;;;5117609;27;20059;-60
2022/10/13 12:12:25;;;;;;;18.65;13.27;;;14.90;99.90;;;;;;5098994;28;20130;-61
2022/10/13 12:14:54;;;;;;;18.88;14.07;;;15.10;99.90;;;;;;5129521;27;20058;-60
2022/10/13 12:17:27;;;;;;;17.13;12.85;;;15.10;99.90;;;;;;5122465;27;20097;-60
2022/10/13 12:19:56;;;;;;;18.27;13.98;;;15.20;99.90;;;;;;5129462;27;20168;-60
2022/10/13 12:22:24;;;;;;;16.30;12.95;;;15.20;99.90;;;;;;5137084;27;20510;-60
2022/10/13 12:24:59;;;;;;;16.95;12.75;;;15.20;99.90;;;;;;5137521;27;20059;-60
2022/10/13 12:27:31;;;;;;;17.98;12.77;;;15.20;99.90;;;;;;5117815;27;20047;-60
2022/10/13 12:29:58;;;;;;;17.67;12.80;;;15.20;99.90;;;;;;5118768;27;20074;-61
2022/10/13 12:32:28;;;;;;;16.02;12.77;;;15.20;99.90;;;;;;5119117;27;20051;-60
2022/10/13 12:34:55;;;;;;;16.90;12.48;;;15.20;99.90;;;;;;5123555;27;20510;-61
2022/10/13 12:37:28;;;;;;;17.30;13.40;;;15.30;99.90;;;;;;5118884;27;20391;-60
2022/10/13 12:39:56;;;;;;;19.42;13.57;;;15.30;99.90;;;;;;5136481;27;20402;-59
2022/10/13 12:42:27;;;;;;;17.20;13.35;;;15.30;99.90;;;;;;5137148;27;20051;-60
2022/10/13 12:44:54;;;;;;;20.63;14.50;;;15.30;99.90;;;;;;5136895;27;20058;-59
2022/10/13 12:47:39;;;;;;;17.92;12.73;;;15.40;99.90;;;;;;5135827;27;20047;-59
2022/10/13 12:50:33;;;;;;;18.70;13.98;;;15.40;99.90;;;;;;5135334;27;20494;-60